createdAt,value
2022-09-30T00:00:32.041Z,0.00
2022-09-30T00:01:32.072Z,0.00
2022-09-30T00:02:32.014Z,0.00
2022-09-30T00:03:32.000Z,0.00
2022-09-30T00:04:31.989Z,0.00
2022-09-30T00:05:31.997Z,0.00
2022-09-30T00:06:31.966Z,0.00
2022-09-30T00:07:31.953Z,0.00
2022-09-30T00:08:31.957Z,0.00
2022-09-30T00:09:31.950Z,0.00
2022-09-30T00:10:32.016Z,0.00
2022-09-30T00:11:31.902Z,0.00
2022-09-30T00:12:31.891Z,0.00
2022-09-30T00:13:31.876Z,0.00
2022-09-30T00:14:31.868Z,0.00
2022-09-30T00:15:31.851Z,0.00
2022-09-30T00:16:31.897Z,0.00
2022-09-30T00:17:31.827Z,0.00
2022-09-30T00:18:31.817Z,0.00
2022-09-30T00:19:31.803Z,0.00
2022-09-30T00:20:31.791Z,0.00
2022-09-30T00:21:31.798Z,0.00
2022-09-30T00:22:31.769Z,0.00
2022-09-30T00:23:31.753Z,0.00
2022-09-30T00:24:31.744Z,0.00
2022-09-30T00:25:31.728Z,0.00
2022-09-30T00:26:31.719Z,0.00
2022-09-30T00:27:31.706Z,0.00
2022-09-30T00:28:31.693Z,0.00
2022-09-30T00:29:31.678Z,0.00
2022-09-30T00:30:31.669Z,0.00
2022-09-30T00:31:31.711Z,0.00
2022-09-30T00:32:31.643Z,0.00
2022-09-30T00:33:31.631Z,0.00
2022-09-30T00:34:31.620Z,0.00
2022-09-30T00:35:31.605Z,0.00
2022-09-30T00:36:31.594Z,0.00
2022-09-30T00:37:31.617Z,0.00
2022-09-30T00:38:31.670Z,0.00
2022-09-30T00:39:31.557Z,0.00
2022-09-30T00:41:31.534Z,0.00
2022-09-30T00:42:31.519Z,0.00
2022-09-30T00:43:31.510Z,0.00
2022-09-30T00:44:31.493Z,0.00
2022-09-30T00:45:31.483Z,0.00
2022-09-30T00:46:31.545Z,0.00
2022-09-30T00:47:31.463Z,0.00
2022-09-30T00:48:31.445Z,0.00
2022-09-30T00:49:31.432Z,0.00
2022-09-30T00:50:31.419Z,0.00
2022-09-30T00:51:31.409Z,0.00
2022-09-30T00:52:31.395Z,0.00
2022-09-30T00:53:31.402Z,0.00
2022-09-30T00:54:31.368Z,0.00
2022-09-30T00:55:31.360Z,0.00
2022-09-30T00:56:31.344Z,0.00
2022-09-30T00:57:31.334Z,0.00
2022-09-30T00:58:31.319Z,0.00
2022-09-30T00:59:31.310Z,0.00
2022-09-30T01:00:31.344Z,0.00
2022-09-30T01:01:31.284Z,0.00
2022-09-30T01:02:31.271Z,0.00
2022-09-30T01:03:31.259Z,0.00
2022-09-30T01:04:31.244Z,0.00
2022-09-30T01:05:31.238Z,0.00
2022-09-30T01:06:31.220Z,0.00
2022-09-30T01:07:31.212Z,0.00
2022-09-30T01:08:31.195Z,0.00
2022-09-30T01:09:31.236Z,0.00
2022-09-30T01:10:31.220Z,0.00
2022-09-30T01:11:31.162Z,0.00
2022-09-30T01:12:31.146Z,0.00
2022-09-30T01:13:31.135Z,0.00
2022-09-30T01:14:31.121Z,0.00
2022-09-30T01:15:31.110Z,0.00
2022-09-30T01:16:31.141Z,0.00
2022-09-30T01:17:31.084Z,0.00
2022-09-30T01:18:31.070Z,0.00
2022-09-30T01:19:31.061Z,0.00
2022-09-30T01:20:31.045Z,0.00
2022-09-30T01:21:31.034Z,0.00
2022-09-30T01:22:31.021Z,0.00
2022-09-30T01:23:31.010Z,0.00
2022-09-30T01:24:30.999Z,0.00
2022-09-30T01:25:31.015Z,0.00
2022-09-30T01:26:30.971Z,0.00
2022-09-30T01:27:30.961Z,0.00
2022-09-30T01:28:30.946Z,0.00
2022-09-30T01:29:30.934Z,0.00
2022-09-30T01:30:30.920Z,0.00
2022-09-30T01:31:30.985Z,0.00
2022-09-30T01:32:30.895Z,0.00
2022-09-30T01:33:30.883Z,0.00
2022-09-30T01:34:30.870Z,0.00
2022-09-30T01:35:30.860Z,0.00
2022-09-30T01:36:30.844Z,0.00
2022-09-30T01:37:30.835Z,0.00
2022-09-30T01:38:30.822Z,0.00
2022-09-30T01:39:30.910Z,0.00
2022-09-30T01:40:30.895Z,0.00
2022-09-30T01:41:30.808Z,0.00
2022-09-30T01:42:30.771Z,0.00
2022-09-30T01:43:30.761Z,0.00
2022-09-30T01:44:30.745Z,0.00
2022-09-30T01:45:30.736Z,0.00
2022-09-30T01:46:30.774Z,0.00
2022-09-30T01:47:30.711Z,0.00
2022-09-30T01:48:30.696Z,0.00
2022-09-30T01:49:30.685Z,0.00
2022-09-30T01:50:30.672Z,0.00
2022-09-30T01:51:30.662Z,0.00
2022-09-30T01:52:30.646Z,0.00
2022-09-30T01:53:30.642Z,0.00
2022-09-30T01:54:30.622Z,0.00
2022-09-30T01:55:30.613Z,0.00
2022-09-30T01:56:30.598Z,0.00
2022-09-30T01:57:30.608Z,0.00
2022-09-30T01:58:30.576Z,0.00
2022-09-30T01:59:30.565Z,0.00
2022-09-30T02:00:30.589Z,0.00
2022-09-30T02:01:30.538Z,0.00
2022-09-30T02:02:30.640Z,0.00
2022-09-30T02:03:30.514Z,0.00
2022-09-30T02:04:30.500Z,0.00
2022-09-30T02:05:30.489Z,0.00
2022-09-30T02:06:30.475Z,0.00
2022-09-30T02:07:30.464Z,0.00
2022-09-30T02:08:30.449Z,0.00
2022-09-30T02:09:30.508Z,0.00
2022-09-30T02:10:30.427Z,0.00
2022-09-30T02:11:30.524Z,0.00
2022-09-30T02:12:30.400Z,0.00
2022-09-30T02:13:30.409Z,0.00
2022-09-30T02:14:30.376Z,0.00
2022-09-30T02:15:30.367Z,0.00
2022-09-30T02:16:30.408Z,0.00
2022-09-30T02:17:30.390Z,0.00
2022-09-30T02:18:30.327Z,0.00
2022-09-30T02:19:30.316Z,0.00
2022-09-30T02:20:30.301Z,0.00
2022-09-30T02:21:30.293Z,0.00
2022-09-30T02:22:30.328Z,0.00
2022-09-30T02:23:30.267Z,0.00
2022-09-30T02:24:30.252Z,0.00
2022-09-30T02:25:30.256Z,0.00
2022-09-30T02:26:30.239Z,0.00
2022-09-30T02:27:30.319Z,0.00
2022-09-30T02:28:30.202Z,0.00
2022-09-30T02:29:30.325Z,0.00
2022-09-30T02:30:30.179Z,0.00
2022-09-30T02:31:30.230Z,0.00
2022-09-30T02:32:30.153Z,0.00
2022-09-30T02:33:30.143Z,0.00
2022-09-30T02:34:30.129Z,0.00
2022-09-30T02:35:30.119Z,0.00
2022-09-30T02:36:30.104Z,0.00
2022-09-30T02:37:30.093Z,0.00
2022-09-30T02:38:30.079Z,0.00
2022-09-30T02:39:30.072Z,0.00
2022-09-30T02:40:30.056Z,0.00
2022-09-30T02:41:30.044Z,0.00
2022-09-30T02:42:30.028Z,0.00
2022-09-30T02:43:30.019Z,0.00
2022-09-30T02:44:30.004Z,0.00
2022-09-30T02:45:30.014Z,0.00
2022-09-30T02:46:30.076Z,0.00
2022-09-30T02:47:29.971Z,0.00
2022-09-30T02:48:29.968Z,0.00
2022-09-30T02:49:29.944Z,0.00
2022-09-30T02:50:29.930Z,0.00
2022-09-30T02:51:29.920Z,0.00
2022-09-30T02:52:29.905Z,0.00
2022-09-30T02:53:29.894Z,0.00
2022-09-30T02:54:29.881Z,0.00
2022-09-30T02:55:29.869Z,0.00
2022-09-30T02:56:29.854Z,0.00
2022-09-30T02:57:29.845Z,0.00
2022-09-30T02:58:29.830Z,0.00
2022-09-30T02:59:29.819Z,0.00
2022-09-30T03:00:29.859Z,0.00
2022-09-30T03:01:29.812Z,0.00
2022-09-30T03:02:29.782Z,0.00
2022-09-30T03:03:29.771Z,0.00
2022-09-30T03:04:29.768Z,0.00
2022-09-30T03:05:29.743Z,0.00
2022-09-30T03:06:29.731Z,0.00
2022-09-30T03:07:29.725Z,0.00
2022-09-30T03:08:29.705Z,0.00
2022-09-30T03:09:29.737Z,0.00
2022-09-30T03:10:29.680Z,0.00
2022-09-30T03:11:29.670Z,0.00
2022-09-30T03:12:29.654Z,0.00
2022-09-30T03:13:29.659Z,0.00
2022-09-30T03:14:29.630Z,0.00
2022-09-30T03:15:29.721Z,0.00
2022-09-30T03:16:29.701Z,0.00
2022-09-30T03:17:29.637Z,0.00
2022-09-30T03:18:29.579Z,0.00
2022-09-30T03:19:29.568Z,0.00
2022-09-30T03:20:29.553Z,0.00
2022-09-30T03:21:29.543Z,0.00
2022-09-30T03:22:29.528Z,0.00
2022-09-30T03:23:29.518Z,0.00
2022-09-30T03:24:29.519Z,0.00
2022-09-30T03:25:29.492Z,0.00
2022-09-30T03:26:29.477Z,0.00
2022-09-30T03:27:29.468Z,0.00
2022-09-30T03:28:29.451Z,0.00
2022-09-30T03:29:29.440Z,0.00
2022-09-30T03:30:29.430Z,0.00
2022-09-30T03:31:29.433Z,0.00
2022-09-30T03:32:29.453Z,0.00
2022-09-30T03:33:29.407Z,0.00
2022-09-30T03:34:29.378Z,0.00
2022-09-30T03:35:29.365Z,0.00
2022-09-30T03:36:29.352Z,0.00
2022-09-30T03:37:29.339Z,0.00
2022-09-30T03:38:29.329Z,0.00
2022-09-30T03:39:29.312Z,0.00
2022-09-30T03:40:29.302Z,0.00
2022-09-30T03:41:29.288Z,0.00
2022-09-30T03:42:29.280Z,0.00
2022-09-30T03:43:29.265Z,0.00
2022-09-30T03:44:29.252Z,0.00
2022-09-30T03:45:29.252Z,0.00
2022-09-30T03:46:29.307Z,0.00
2022-09-30T03:47:29.215Z,0.00
2022-09-30T03:48:29.200Z,0.00
2022-09-30T03:49:29.213Z,0.00
2022-09-30T03:50:29.177Z,0.00
2022-09-30T03:51:29.164Z,0.00
2022-09-30T03:52:29.152Z,0.00
2022-09-30T03:53:29.135Z,0.00
2022-09-30T03:54:29.126Z,0.00
2022-09-30T03:55:29.126Z,0.00
2022-09-30T03:56:29.108Z,0.00
2022-09-30T03:57:29.085Z,0.00
2022-09-30T03:58:29.077Z,0.00
2022-09-30T03:59:29.062Z,0.00
2022-09-30T04:01:29.038Z,0.00
2022-09-30T04:02:29.024Z,0.00
2022-09-30T04:03:29.014Z,0.00
2022-09-30T04:04:28.999Z,0.00
2022-09-30T04:05:29.007Z,0.00
2022-09-30T04:06:28.974Z,0.00
2022-09-30T04:07:28.966Z,0.00
2022-09-30T04:08:33.027Z,0.00
2022-09-30T04:09:29.006Z,0.00
2022-09-30T04:10:28.934Z,0.00
2022-09-30T04:11:28.914Z,0.00
2022-09-30T04:12:28.898Z,0.00
2022-09-30T04:13:28.888Z,0.00
2022-09-30T04:14:28.874Z,0.00
2022-09-30T04:15:28.862Z,0.00
2022-09-30T04:16:28.919Z,0.00
2022-09-30T04:17:28.838Z,0.00
2022-09-30T04:18:28.824Z,0.00
2022-09-30T04:19:28.813Z,0.00
2022-09-30T04:20:28.799Z,0.00
2022-09-30T04:21:28.869Z,0.00
2022-09-30T04:22:28.774Z,0.00
2022-09-30T04:23:28.763Z,0.00
2022-09-30T04:24:28.747Z,0.00
2022-09-30T04:25:28.738Z,0.00
2022-09-30T04:26:28.724Z,0.00
2022-09-30T04:27:28.713Z,0.00
2022-09-30T04:28:28.698Z,0.00
2022-09-30T04:29:28.687Z,0.00
2022-09-30T04:30:33.276Z,0.00
2022-09-30T04:31:28.752Z,0.00
2022-09-30T04:32:28.661Z,0.00
2022-09-30T04:33:28.637Z,0.00
2022-09-30T04:34:28.623Z,0.00
2022-09-30T04:35:28.613Z,0.00
2022-09-30T04:36:28.598Z,0.00
2022-09-30T04:37:28.605Z,0.00
2022-09-30T04:38:28.574Z,0.00
2022-09-30T04:39:28.562Z,0.00
2022-09-30T04:40:28.547Z,0.00
2022-09-30T04:41:28.536Z,0.00
2022-09-30T04:42:28.523Z,0.00
2022-09-30T04:43:28.513Z,0.00
2022-09-30T04:44:28.496Z,0.00
2022-09-30T04:45:28.524Z,0.00
2022-09-30T04:46:28.472Z,0.00
2022-09-30T04:47:28.467Z,0.00
2022-09-30T04:48:28.448Z,0.00
2022-09-30T04:49:28.436Z,0.00
2022-09-30T04:50:28.421Z,0.00
2022-09-30T04:51:28.413Z,0.00
2022-09-30T04:52:28.410Z,0.00
2022-09-30T04:53:28.402Z,0.00
2022-09-30T04:54:28.372Z,0.00
2022-09-30T04:55:28.361Z,0.00
2022-09-30T04:56:28.346Z,0.00
2022-09-30T04:57:28.336Z,0.00
2022-09-30T04:58:29.187Z,0.00
2022-09-30T04:59:28.328Z,0.00
2022-09-30T05:00:28.326Z,0.00
2022-09-30T05:01:28.285Z,0.00
2022-09-30T05:02:28.326Z,0.00
2022-09-30T05:03:28.261Z,0.00
2022-09-30T05:04:28.247Z,0.00
2022-09-30T05:05:28.237Z,0.00
2022-09-30T05:06:28.221Z,0.00
2022-09-30T05:07:28.211Z,0.00
2022-09-30T05:08:28.196Z,4.00
2022-09-30T05:09:28.211Z,4.00
2022-09-30T05:10:28.170Z,4.00
2022-09-30T05:11:28.159Z,0.00
2022-09-30T05:12:28.146Z,4.00
2022-09-30T05:13:28.136Z,4.00
2022-09-30T05:14:28.123Z,4.00
2022-09-30T05:15:28.112Z,4.00
2022-09-30T05:16:28.239Z,4.00
2022-09-30T05:17:28.087Z,4.00
2022-09-30T05:18:28.070Z,8.00
2022-09-30T05:19:28.062Z,4.00
2022-09-30T05:20:28.046Z,8.00
2022-09-30T05:21:28.035Z,8.00
2022-09-30T05:22:28.023Z,8.00
2022-09-30T05:23:28.014Z,8.00
2022-09-30T05:24:27.996Z,12.00
2022-09-30T05:25:28.005Z,12.00
2022-09-30T05:26:27.970Z,16.00
2022-09-30T05:27:27.962Z,16.00
2022-09-30T05:28:27.946Z,20.00
2022-09-30T05:29:27.937Z,20.00
2022-09-30T05:30:27.921Z,24.00
2022-09-30T05:31:27.951Z,24.00
2022-09-30T05:32:27.896Z,24.00
2022-09-30T05:33:27.888Z,24.00
2022-09-30T05:34:27.877Z,24.00
2022-09-30T05:35:27.861Z,24.00
2022-09-30T05:36:27.845Z,28.00
2022-09-30T05:37:27.836Z,32.00
2022-09-30T05:38:27.822Z,32.00
2022-09-30T05:39:27.812Z,32.00
2022-09-30T05:40:27.796Z,36.00
2022-09-30T05:41:27.803Z,36.00
2022-09-30T05:42:27.771Z,40.00
2022-09-30T05:43:27.762Z,44.00
2022-09-30T05:44:27.744Z,48.00
2022-09-30T05:45:27.735Z,52.00
2022-09-30T05:46:27.747Z,56.00
2022-09-30T05:47:27.710Z,60.00
2022-09-30T05:48:27.701Z,64.00
2022-09-30T05:49:27.685Z,72.00
2022-09-30T05:50:27.671Z,76.00
2022-09-30T05:51:27.662Z,88.00
2022-09-30T05:52:27.646Z,92.00
2022-09-30T05:53:27.636Z,104.00
2022-09-30T05:54:27.622Z,108.00
2022-09-30T05:55:27.610Z,112.00
2022-09-30T05:56:27.596Z,116.00
2022-09-30T05:57:27.689Z,124.00
2022-09-30T05:58:27.639Z,124.00
2022-09-30T05:59:27.560Z,132.00
2022-09-30T06:00:27.544Z,132.00
2022-09-30T06:01:27.545Z,132.00
2022-09-30T06:02:27.626Z,132.00
2022-09-30T06:03:27.511Z,140.00
2022-09-30T06:04:27.494Z,140.00
2022-09-30T06:05:27.485Z,140.00
2022-09-30T06:06:27.472Z,148.00
2022-09-30T06:07:27.461Z,152.00
2022-09-30T06:08:27.446Z,160.00
2022-09-30T06:09:27.466Z,160.00
2022-09-30T06:10:27.427Z,164.00
2022-09-30T06:11:27.413Z,168.00
2022-09-30T06:12:27.396Z,168.00
2022-09-30T06:13:27.402Z,168.00
2022-09-30T06:14:27.373Z,172.00
2022-09-30T06:15:27.365Z,180.00
2022-09-30T06:16:27.417Z,188.00
2022-09-30T06:17:27.337Z,192.00
2022-09-30T06:18:27.322Z,192.00
2022-09-30T06:19:27.313Z,192.00
2022-09-30T06:20:27.379Z,192.00
2022-09-30T06:21:27.287Z,192.00
2022-09-30T06:22:27.272Z,196.00
2022-09-30T06:23:27.262Z,208.00
2022-09-30T06:24:27.247Z,216.00
2022-09-30T06:25:27.238Z,220.00
2022-09-30T06:26:27.222Z,232.00
2022-09-30T06:27:27.211Z,244.00
2022-09-30T06:28:27.195Z,260.00
2022-09-30T06:29:27.204Z,276.00
2022-09-30T06:30:30.500Z,292.00
2022-09-30T06:31:27.203Z,308.00
2022-09-30T06:32:27.147Z,320.00
2022-09-30T06:33:27.137Z,328.00
2022-09-30T06:34:27.124Z,332.00
2022-09-30T06:35:27.112Z,336.00
2022-09-30T06:36:27.096Z,336.00
2022-09-30T06:37:27.100Z,336.00
2022-09-30T06:39:00.283Z,332.00
2022-09-30T06:39:27.059Z,336.00
2022-09-30T06:40:27.061Z,340.00
2022-09-30T06:41:27.052Z,340.00
2022-09-30T06:42:27.037Z,348.00
2022-09-30T06:43:27.008Z,368.00
2022-09-30T06:44:26.998Z,380.00
2022-09-30T06:45:32.663Z,388.00
2022-09-30T06:46:30.715Z,396.00
2022-09-30T06:47:27.051Z,404.00
2022-09-30T06:48:36.956Z,404.00
2022-09-30T06:49:29.388Z,400.00
2022-09-30T06:50:26.921Z,400.00
2022-09-30T06:51:26.905Z,396.00
2022-09-30T06:52:26.892Z,396.00
2022-09-30T06:53:26.880Z,396.00
2022-09-30T06:54:26.868Z,400.00
2022-09-30T06:55:26.855Z,400.00
2022-09-30T06:56:26.842Z,416.00
2022-09-30T06:57:26.868Z,424.00
2022-09-30T06:58:26.817Z,440.00
2022-09-30T06:59:26.803Z,452.00
2022-09-30T07:00:26.795Z,464.00
2022-09-30T07:01:26.849Z,472.00
2022-09-30T07:02:26.829Z,488.00
2022-09-30T07:03:26.753Z,492.00
2022-09-30T07:04:26.740Z,496.00
2022-09-30T07:05:26.729Z,504.00
2022-09-30T07:06:26.717Z,512.00
2022-09-30T07:07:26.699Z,520.00
2022-09-30T07:08:26.694Z,536.00
2022-09-30T07:09:26.994Z,552.00
2022-09-30T07:10:26.771Z,568.00
2022-09-30T07:11:26.651Z,584.00
2022-09-30T07:12:26.638Z,592.00
2022-09-30T07:13:26.622Z,608.00
2022-09-30T07:14:26.613Z,616.00
2022-09-30T07:15:26.600Z,628.00
2022-09-30T07:16:26.662Z,640.00
2022-09-30T07:17:26.641Z,656.00
2022-09-30T07:18:26.562Z,672.00
2022-09-30T07:19:26.547Z,684.00
2022-09-30T07:20:26.535Z,692.00
2022-09-30T07:21:26.523Z,704.00
2022-09-30T07:22:26.511Z,720.00
2022-09-30T07:23:27.146Z,740.00
2022-09-30T07:24:26.484Z,768.00
2022-09-30T07:25:26.473Z,796.00
2022-09-30T07:26:26.458Z,828.00
2022-09-30T07:27:26.445Z,860.00
2022-09-30T07:28:26.434Z,880.00
2022-09-30T07:29:26.422Z,900.00
2022-09-30T07:30:27.592Z,912.00
2022-09-30T07:31:35.280Z,928.00
2022-09-30T07:32:26.448Z,936.00
2022-09-30T07:33:26.387Z,940.00
2022-09-30T07:34:26.459Z,952.00
2022-09-30T07:35:26.342Z,972.00
2022-09-30T07:36:31.856Z,1000.00
2022-09-30T07:37:26.335Z,1036.00
2022-09-30T07:38:26.329Z,1060.00
2022-09-30T07:39:26.292Z,1072.00
2022-09-30T07:40:26.281Z,1068.00
2022-09-30T07:41:26.266Z,1056.00
2022-09-30T07:42:26.257Z,1056.00
2022-09-30T07:43:26.241Z,1068.00
2022-09-30T07:44:26.230Z,1080.00
2022-09-30T07:45:26.251Z,1112.00
2022-09-30T07:46:26.307Z,1148.00
2022-09-30T07:47:26.195Z,1156.00
2022-09-30T07:48:26.178Z,1172.00
2022-09-30T07:49:26.186Z,1164.00
2022-09-30T07:50:26.154Z,1164.00
2022-09-30T07:51:26.144Z,1172.00
2022-09-30T07:52:26.131Z,1144.00
2022-09-30T07:53:26.116Z,1124.00
2022-09-30T07:54:26.104Z,1124.00
2022-09-30T07:55:26.092Z,1124.00
2022-09-30T07:56:26.076Z,1120.00
2022-09-30T07:57:26.069Z,1112.00
2022-09-30T07:58:26.054Z,1100.00
2022-09-30T07:59:26.043Z,1052.00
2022-09-30T08:00:43.024Z,1016.00
2022-09-30T08:01:26.033Z,964.00
2022-09-30T08:02:26.030Z,912.00
2022-09-30T08:03:25.993Z,872.00
2022-09-30T08:04:25.980Z,868.00
2022-09-30T08:05:26.018Z,880.00
2022-09-30T08:06:25.952Z,916.00
2022-09-30T08:07:25.943Z,952.00
2022-09-30T08:08:26.028Z,956.00
2022-09-30T08:09:26.277Z,964.00
2022-09-30T08:10:25.911Z,992.00
2022-09-30T08:11:25.894Z,984.00
2022-09-30T08:12:25.881Z,1016.00
2022-09-30T08:13:25.868Z,1080.00
2022-09-30T08:14:25.854Z,1148.00
2022-09-30T08:15:25.847Z,1172.00
2022-09-30T08:16:25.869Z,1220.00
2022-09-30T08:17:25.818Z,1232.00
2022-09-30T08:18:25.804Z,1176.00
2022-09-30T08:19:25.793Z,1128.00
2022-09-30T08:20:25.897Z,1068.00
2022-09-30T08:21:25.784Z,1032.00
2022-09-30T08:22:25.753Z,1020.00
2022-09-30T08:23:25.741Z,1024.00
2022-09-30T08:24:26.132Z,1044.00
2022-09-30T08:25:25.718Z,1056.00
2022-09-30T08:26:25.704Z,1080.00
2022-09-30T08:27:25.729Z,1112.00
2022-09-30T08:28:25.680Z,1140.00
2022-09-30T08:29:56.796Z,1164.00
2022-09-30T08:30:25.656Z,1164.00
2022-09-30T08:31:25.672Z,1152.00
2022-09-30T08:32:25.629Z,1144.00
2022-09-30T08:33:25.620Z,1144.00
2022-09-30T08:34:25.815Z,1144.00
2022-09-30T08:35:25.703Z,1140.00
2022-09-30T08:36:25.580Z,1128.00
2022-09-30T08:37:25.587Z,1116.00
2022-09-30T08:38:25.557Z,1088.00
2022-09-30T08:39:25.548Z,1040.00
2022-09-30T08:40:25.538Z,980.00
2022-09-30T08:41:25.523Z,936.00
2022-09-30T08:42:36.658Z,932.00
2022-09-30T08:43:25.501Z,936.00
2022-09-30T08:44:25.485Z,940.00
2022-09-30T08:45:25.473Z,964.00
2022-09-30T08:46:25.553Z,988.00
2022-09-30T08:47:25.449Z,1008.00
2022-09-30T08:48:25.449Z,1028.00
2022-09-30T08:49:25.425Z,1024.00
2022-09-30T08:50:25.410Z,1004.00
2022-09-30T08:51:25.399Z,980.00
2022-09-30T08:52:37.294Z,972.00
2022-09-30T08:53:25.419Z,988.00
2022-09-30T08:54:25.360Z,1000.00
2022-09-30T08:55:25.352Z,1000.00
2022-09-30T08:56:25.339Z,1024.00
2022-09-30T08:57:25.328Z,1056.00
2022-09-30T08:58:25.313Z,1096.00
2022-09-30T08:59:25.303Z,1124.00
2022-09-30T09:00:25.288Z,1148.00
2022-09-30T09:01:25.314Z,1192.00
2022-09-30T09:02:25.314Z,1240.00
2022-09-30T09:03:25.255Z,1288.00
2022-09-30T09:04:25.497Z,1360.00
2022-09-30T09:05:25.232Z,1432.00
2022-09-30T09:06:25.215Z,1456.00
2022-09-30T09:07:25.207Z,1460.00
2022-09-30T09:08:25.194Z,1452.00
2022-09-30T09:09:25.338Z,1460.00
2022-09-30T09:10:25.171Z,1472.00
2022-09-30T09:11:25.166Z,1488.00
2022-09-30T09:12:25.144Z,1468.00
2022-09-30T09:13:25.135Z,1452.00
2022-09-30T09:14:25.226Z,1448.00
2022-09-30T09:15:25.114Z,1440.00
2022-09-30T09:16:25.190Z,1436.00
2022-09-30T09:17:25.089Z,1452.00
2022-09-30T09:18:25.472Z,1480.00
2022-09-30T09:19:25.213Z,1540.00
2022-09-30T09:20:25.052Z,1628.00
2022-09-30T09:21:25.045Z,1700.00
2022-09-30T09:22:25.215Z,1760.00
2022-09-30T09:23:25.026Z,1812.00
2022-09-30T09:24:25.006Z,1792.00
2022-09-30T09:25:25.020Z,1720.00
2022-09-30T09:26:24.983Z,1708.00
2022-09-30T09:27:25.038Z,1692.00
2022-09-30T09:28:25.005Z,1664.00
2022-09-30T09:29:25.106Z,1656.00
2022-09-30T09:30:24.936Z,1700.00
2022-09-30T09:31:24.978Z,1768.00
2022-09-30T09:32:24.913Z,1840.00
2022-09-30T09:33:24.910Z,1892.00
2022-09-30T09:34:24.888Z,1964.00
2022-09-30T09:35:24.879Z,2028.00
2022-09-30T09:36:24.868Z,2040.00
2022-09-30T09:37:24.857Z,2024.00
2022-09-30T09:38:24.844Z,1972.00
2022-09-30T09:39:24.910Z,1960.00
2022-09-30T09:40:24.820Z,2020.00
2022-09-30T09:41:24.931Z,2068.00
2022-09-30T09:42:24.799Z,2140.00
2022-09-30T09:43:27.548Z,2236.00
2022-09-30T09:44:24.979Z,2304.00
2022-09-30T09:45:24.778Z,2360.00
2022-09-30T09:46:24.846Z,2428.00
2022-09-30T09:47:24.743Z,2480.00
2022-09-30T09:48:24.783Z,2516.00
2022-09-30T09:49:24.722Z,2560.00
2022-09-30T09:50:24.710Z,2612.00
2022-09-30T09:51:24.715Z,2584.00
2022-09-30T09:52:24.787Z,2520.00
2022-09-30T09:53:24.675Z,2468.00
2022-09-30T09:54:24.792Z,2412.00
2022-09-30T09:55:24.655Z,2340.00
2022-09-30T09:56:28.373Z,2284.00
2022-09-30T09:57:24.655Z,2208.00
2022-09-30T09:58:24.619Z,2136.00
2022-09-30T09:59:24.983Z,2052.00
2022-09-30T10:00:24.595Z,1984.00
2022-09-30T10:01:24.600Z,1956.00
2022-09-30T10:02:24.594Z,2012.00
2022-09-30T10:03:24.564Z,2108.00
2022-09-30T10:04:24.815Z,2260.00
2022-09-30T10:05:24.543Z,2348.00
2022-09-30T10:06:24.527Z,2432.00
2022-09-30T10:07:24.518Z,2524.00
2022-09-30T10:08:24.505Z,2632.00
2022-09-30T10:09:24.656Z,2788.00
2022-09-30T10:10:24.589Z,2844.00
2022-09-30T10:11:24.490Z,2904.00
2022-09-30T10:12:24.458Z,2996.00
2022-09-30T10:13:24.568Z,3100.00
2022-09-30T10:14:24.627Z,3148.00
2022-09-30T10:15:24.429Z,3300.00
2022-09-30T10:16:24.413Z,3236.00
2022-09-30T10:17:24.406Z,3476.00
2022-09-30T10:18:24.393Z,3432.00
2022-09-30T10:19:24.383Z,3268.00
2022-09-30T10:20:24.371Z,3128.00
2022-09-30T10:21:24.363Z,3100.00
2022-09-30T10:22:24.352Z,3100.00
2022-09-30T10:23:24.343Z,3088.00
2022-09-30T10:24:24.497Z,2944.00
2022-09-30T10:25:24.328Z,2900.00
2022-09-30T10:26:24.447Z,2932.00
2022-09-30T10:27:24.301Z,2972.00
2022-09-30T10:28:24.353Z,2904.00
2022-09-30T10:29:24.339Z,2888.00
2022-09-30T10:30:24.470Z,2972.00
2022-09-30T10:31:24.322Z,3044.00
2022-09-30T10:32:24.248Z,2936.00
2022-09-30T10:33:24.240Z,2892.00
2022-09-30T10:34:24.239Z,2980.00
2022-09-30T10:35:24.219Z,2988.00
2022-09-30T10:36:24.207Z,2940.00
2022-09-30T10:37:24.200Z,2708.00
2022-09-30T10:38:24.188Z,2784.00
2022-09-30T10:39:24.179Z,2632.00
2022-09-30T10:40:24.171Z,2576.00
2022-09-30T10:41:24.445Z,2484.00
2022-09-30T10:42:26.558Z,2428.00
2022-09-30T10:43:24.142Z,2364.00
2022-09-30T10:44:24.128Z,2440.00
2022-09-30T10:45:24.140Z,2504.00
2022-09-30T10:46:27.212Z,2520.00
2022-09-30T10:47:24.102Z,2540.00
2022-09-30T10:48:24.090Z,2516.00
2022-09-30T10:49:24.083Z,2484.00
2022-09-30T10:50:24.070Z,2452.00
2022-09-30T10:51:24.344Z,2440.00
2022-09-30T10:52:24.051Z,2484.00
2022-09-30T10:53:24.043Z,2556.00
2022-09-30T10:54:24.032Z,2636.00
2022-09-30T10:55:24.025Z,2716.00
2022-09-30T10:56:24.011Z,2776.00
2022-09-30T10:57:24.029Z,2796.00
2022-09-30T10:58:24.007Z,2768.00
2022-09-30T10:59:23.988Z,2728.00
2022-09-30T11:00:23.974Z,2628.00
2022-09-30T11:01:24.305Z,2536.00
2022-09-30T11:02:23.968Z,2476.00
2022-09-30T11:03:24.010Z,2428.00
2022-09-30T11:04:23.937Z,2412.00
2022-09-30T11:05:23.928Z,2432.00
2022-09-30T11:06:24.347Z,2508.00
2022-09-30T11:07:23.910Z,2604.00
2022-09-30T11:08:23.898Z,2672.00
2022-09-30T11:09:23.890Z,2740.00
2022-09-30T11:10:25.065Z,2748.00
2022-09-30T11:11:23.871Z,2692.00
2022-09-30T11:12:23.870Z,2628.00
2022-09-30T11:13:23.852Z,2568.00
2022-09-30T11:14:23.843Z,2520.00
2022-09-30T11:15:23.834Z,2464.00
2022-09-30T11:16:23.904Z,2424.00
2022-09-30T11:17:23.835Z,2416.00
2022-09-30T11:18:23.813Z,2444.00
2022-09-30T11:19:23.799Z,2528.00
2022-09-30T11:20:23.935Z,2552.00
2022-09-30T11:21:23.778Z,2608.00
2022-09-30T11:22:23.769Z,2620.00
2022-09-30T11:23:23.759Z,2604.00
2022-09-30T11:24:23.748Z,2560.00
2022-09-30T11:25:23.741Z,2484.00
2022-09-30T11:26:23.732Z,2428.00
2022-09-30T11:27:23.725Z,2428.00
2022-09-30T11:28:23.746Z,2472.00
2022-09-30T11:29:23.704Z,2516.00
2022-09-30T11:30:23.695Z,2540.00
2022-09-30T11:31:23.729Z,2696.00
2022-09-30T11:32:23.674Z,3360.00
2022-09-30T11:33:23.696Z,3464.00
2022-09-30T11:34:23.670Z,3456.00
2022-09-30T11:35:23.652Z,3364.00
2022-09-30T11:36:23.642Z,3208.00
2022-09-30T11:37:23.635Z,2488.00
2022-09-30T11:38:23.622Z,2532.00
2022-09-30T11:39:23.631Z,2372.00
2022-09-30T11:40:23.624Z,2320.00
2022-09-30T11:41:23.658Z,2136.00
2022-09-30T11:42:23.590Z,2064.00
2022-09-30T11:43:23.584Z,2032.00
2022-09-30T11:44:23.570Z,2096.00
2022-09-30T11:45:23.592Z,2140.00
2022-09-30T11:46:23.554Z,2184.00
2022-09-30T11:47:23.648Z,2232.00
2022-09-30T11:48:23.536Z,2268.00
2022-09-30T11:49:23.555Z,2252.00
2022-09-30T11:50:23.519Z,2256.00
2022-09-30T11:51:23.513Z,2316.00
2022-09-30T11:52:23.503Z,2312.00
2022-09-30T11:53:23.496Z,2244.00
2022-09-30T11:54:23.485Z,2164.00
2022-09-30T11:55:23.489Z,2164.00
2022-09-30T11:56:23.467Z,2180.00
2022-09-30T11:57:23.461Z,2180.00
2022-09-30T11:58:40.448Z,2168.00
2022-09-30T11:59:23.451Z,2112.00
2022-09-30T12:00:23.432Z,2092.00
2022-09-30T12:01:23.425Z,2096.00
2022-09-30T12:02:23.469Z,2116.00
2022-09-30T12:03:23.443Z,2140.00
2022-09-30T12:04:23.398Z,2128.00
2022-09-30T12:05:23.495Z,2108.00
2022-09-30T12:06:23.380Z,2144.00
2022-09-30T12:07:23.371Z,2184.00
2022-09-30T12:08:23.362Z,2204.00
2022-09-30T12:09:23.350Z,2188.00
2022-09-30T12:10:23.345Z,2256.00
2022-09-30T12:11:23.335Z,2300.00
2022-09-30T12:12:23.327Z,2380.00
2022-09-30T12:13:23.316Z,2936.00
2022-09-30T12:14:23.310Z,2920.00
2022-09-30T12:15:23.298Z,3124.00
2022-09-30T12:16:23.376Z,2936.00
2022-09-30T12:17:23.280Z,3376.00
2022-09-30T12:18:23.274Z,3464.00
2022-09-30T12:19:25.680Z,3492.00
2022-09-30T12:20:23.257Z,2744.00
2022-09-30T12:21:23.275Z,3180.00
2022-09-30T12:22:23.240Z,3204.00
2022-09-30T12:23:23.230Z,3020.00
2022-09-30T12:24:23.222Z,3228.00
2022-09-30T12:25:23.213Z,2988.00
2022-09-30T12:26:23.206Z,2472.00
2022-09-30T12:27:23.196Z,2572.00
2022-09-30T12:28:23.283Z,2112.00
2022-09-30T12:29:23.179Z,2052.00
2022-09-30T12:30:23.178Z,2060.00
2022-09-30T12:31:23.250Z,2140.00
2022-09-30T12:32:23.156Z,2524.00
2022-09-30T12:33:23.146Z,2660.00
2022-09-30T12:34:23.142Z,2032.00
2022-09-30T12:35:23.132Z,2388.00
2022-09-30T12:36:23.125Z,2244.00
2022-09-30T12:37:23.133Z,2032.00
2022-09-30T12:38:23.108Z,2064.00
2022-09-30T12:39:23.099Z,2132.00
2022-09-30T12:40:23.091Z,2244.00
2022-09-30T12:41:23.082Z,2340.00
2022-09-30T12:42:23.080Z,2916.00